sensor_id;sensor_type;location;lat;lon;timestamp;P1;durP1;ratioP1;P2;durP2;ratioP2
30635;SDS011;17400;52.392;9.750;2023-02-28T00:01:27;9.33;;;4.87;;
30635;SDS011;17400;52.392;9.750;2023-02-28T00:03:55;8.83;;;5.47;;
30635;SDS011;17400;52.392;9.750;2023-02-28T00:06:23;12.50;;;6.40;;
30635;SDS011;17400;52.392;9.750;2023-02-28T00:08:51;10.73;;;6.03;;
30635;SDS011;17400;52.392;9.750;2023-02-28T00:11:20;11.90;;;6.03;;
30635;SDS011;17400;52.392;9.750;2023-02-28T00:13:49;10.13;;;5.10;;
30635;SDS011;17400;52.392;9.750;2023-02-28T00:16:17;10.73;;;5.00;;
30635;SDS011;17400;52.392;9.750;2023-02-28T00:18:47;11.60;;;5.70;;
30635;SDS011;17400;52.392;9.750;2023-02-28T00:21:16;10.00;;;4.93;;
30635;SDS011;17400;52.392;9.750;2023-02-28T00:23:45;9.23;;;5.53;;
30635;SDS011;17400;52.392;9.750;2023-02-28T00:26:16;9.87;;;5.40;;
30635;SDS011;17400;52.392;9.750;2023-02-28T00:28:48;7.83;;;4.77;;
30635;SDS011;17400;52.392;9.750;2023-02-28T00:31:16;9.60;;;4.70;;
30635;SDS011;17400;52.392;9.750;2023-02-28T00:33:44;13.60;;;5.20;;
30635;SDS011;17400;52.392;9.750;2023-02-28T00:36:13;13.47;;;5.80;;
30635;SDS011;17400;52.392;9.750;2023-02-28T00:38:40;9.13;;;5.10;;
30635;SDS011;17400;52.392;9.750;2023-02-28T00:41:08;10.30;;;5.37;;
30635;SDS011;17400;52.392;9.750;2023-02-28T00:43:37;7.60;;;5.03;;
30635;SDS011;17400;52.392;9.750;2023-02-28T00:46:09;8.73;;;5.83;;
30635;SDS011;17400;52.392;9.750;2023-02-28T00:48:37;9.93;;;5.10;;
30635;SDS011;17400;52.392;9.750;2023-02-28T00:51:04;8.77;;;5.07;;
30635;SDS011;17400;52.392;9.750;2023-02-28T00:53:33;8.83;;;5.50;;
30635;SDS011;17400;52.392;9.750;2023-02-28T00:56:01;11.90;;;6.63;;
30635;SDS011;17400;52.392;9.750;2023-02-28T00:58:32;10.80;;;6.50;;
30635;SDS011;17400;52.392;9.750;2023-02-28T01:01:00;14.80;;;6.90;;
30635;SDS011;17400;52.392;9.750;2023-02-28T01:03:29;15.87;;;7.77;;
30635;SDS011;17400;52.392;9.750;2023-02-28T01:05:57;12.67;;;7.57;;
30635;SDS011;17400;52.392;9.750;2023-02-28T01:08:25;14.73;;;8.23;;
30635;SDS011;17400;52.392;9.750;2023-02-28T01:10:53;19.77;;;9.23;;
30635;SDS011;17400;52.392;9.750;2023-02-28T01:13:21;17.83;;;9.33;;
30635;SDS011;17400;52.392;9.750;2023-02-28T01:15:50;17.07;;;8.80;;
30635;SDS011;17400;52.392;9.750;2023-02-28T01:18:20;21.30;;;9.50;;
30635;SDS011;17400;52.392;9.750;2023-02-28T01:20:50;14.13;;;8.80;;
30635;SDS011;17400;52.392;9.750;2023-02-28T01:23:18;11.97;;;8.10;;
30635;SDS011;17400;52.392;9.750;2023-02-28T01:25:48;15.27;;;8.67;;
30635;SDS011;17400;52.392;9.750;2023-02-28T01:28:15;16.80;;;8.63;;
30635;SDS011;17400;52.392;9.750;2023-02-28T01:30:46;13.83;;;7.87;;
30635;SDS011;17400;52.392;9.750;2023-02-28T01:33:15;12.70;;;8.77;;
30635;SDS011;17400;52.392;9.750;2023-02-28T01:35:42;14.60;;;9.00;;
30635;SDS011;17400;52.392;9.750;2023-02-28T01:38:12;15.53;;;8.50;;
30635;SDS011;17400;52.392;9.750;2023-02-28T01:40:47;15.43;;;8.97;;
30635;SDS011;17400;52.392;9.750;2023-02-28T01:43:19;14.67;;;8.33;;
30635;SDS011;17400;52.392;9.750;2023-02-28T01:45:51;18.17;;;8.90;;
30635;SDS011;17400;52.392;9.750;2023-02-28T01:48:20;11.93;;;8.03;;
30635;SDS011;17400;52.392;9.750;2023-02-28T01:50:52;14.23;;;8.03;;
30635;SDS011;17400;52.392;9.750;2023-02-28T01:53:24;16.03;;;9.50;;
30635;SDS011;17400;52.392;9.750;2023-02-28T01:55:56;18.10;;;9.37;;
30635;SDS011;17400;52.392;9.750;2023-02-28T01:58:24;15.23;;;8.93;;
30635;SDS011;17400;52.392;9.750;2023-02-28T02:00:52;18.23;;;9.83;;
30635;SDS011;17400;52.392;9.750;2023-02-28T02:03:21;18.07;;;10.57;;
30635;SDS011;17400;52.392;9.750;2023-02-28T02:05:49;15.27;;;8.87;;
30635;SDS011;17400;52.392;9.750;2023-02-28T02:08:17;18.07;;;9.80;;
30635;SDS011;17400;52.392;9.750;2023-02-28T02:10:51;16.53;;;8.83;;
30635;SDS011;17400;52.392;9.750;2023-02-28T02:13:25;13.43;;;9.33;;
30635;SDS011;17400;52.392;9.750;2023-02-28T02:16:14;16.63;;;8.37;;
30635;SDS011;17400;52.392;9.750;2023-02-28T02:18:52;18.80;;;8.67;;
30635;SDS011;17400;52.392;9.750;2023-02-28T02:27:31;13.23;;;7.50;;
30635;SDS011;17400;52.392;9.750;2023-02-28T02:30:22;12.37;;;8.10;;
30635;SDS011;17400;52.392;9.750;2023-02-28T02:33:14;13.63;;;7.50;;
30635;SDS011;17400;52.392;9.750;2023-02-28T02:36:05;14.47;;;8.30;;
30635;SDS011;17400;52.392;9.750;2023-02-28T02:38:38;14.83;;;8.87;;
30635;SDS011;17400;52.392;9.750;2023-02-28T02:41:14;10.63;;;7.30;;
30635;SDS011;17400;52.392;9.750;2023-02-28T02:43:47;13.37;;;7.53;;
30635;SDS011;17400;52.392;9.750;2023-02-28T02:46:19;15.47;;;7.60;;
30635;SDS011;17400;52.392;9.750;2023-02-28T02:48:51;13.43;;;7.93;;
30635;SDS011;17400;52.392;9.750;2023-02-28T02:51:26;13.27;;;7.97;;
30635;SDS011;17400;52.392;9.750;2023-02-28T02:53:56;14.47;;;7.80;;
30635;SDS011;17400;52.392;9.750;2023-02-28T02:56:28;18.23;;;8.20;;
30635;SDS011;17400;52.392;9.750;2023-02-28T02:58:59;12.80;;;6.53;;
30635;SDS011;17400;52.392;9.750;2023-02-28T03:01:30;11.13;;;6.53;;
30635;SDS011;17400;52.392;9.750;2023-02-28T03:04:02;8.90;;;6.00;;
30635;SDS011;17400;52.392;9.750;2023-02-28T03:06:34;10.83;;;6.07;;
30635;SDS011;17400;52.392;9.750;2023-02-28T03:09:02;14.17;;;6.30;;
30635;SDS011;17400;52.392;9.750;2023-02-28T03:11:30;10.87;;;6.83;;
30635;SDS011;17400;52.392;9.750;2023-02-28T03:17:08;10.10;;;6.30;;
30635;SDS011;17400;52.392;9.750;2023-02-28T03:19:48;11.10;;;6.97;;
30635;SDS011;17400;52.392;9.750;2023-02-28T03:22:27;13.67;;;6.07;;
30635;SDS011;17400;52.392;9.750;2023-02-28T03:25:07;8.93;;;6.03;;
30635;SDS011;17400;52.392;9.750;2023-02-28T03:27:39;10.87;;;6.77;;
30635;SDS011;17400;52.392;9.750;2023-02-28T03:30:10;10.37;;;6.63;;
30635;SDS011;17400;52.392;9.750;2023-02-28T03:32:45;8.73;;;5.33;;
30635;SDS011;17400;52.392;9.750;2023-02-28T03:35:21;11.37;;;7.10;;
30635;SDS011;17400;52.392;9.750;2023-02-28T03:37:55;10.00;;;6.60;;
30635;SDS011;17400;52.392;9.750;2023-02-28T03:40:30;8.87;;;6.23;;
30635;SDS011;17400;52.392;9.750;2023-02-28T03:43:04;11.33;;;5.87;;
30635;SDS011;17400;52.392;9.750;2023-02-28T03:45:37;11.27;;;6.57;;
30635;SDS011;17400;52.392;9.750;2023-02-28T03:48:10;8.77;;;6.67;;
30635;SDS011;17400;52.392;9.750;2023-02-28T03:50:41;12.27;;;7.70;;
30635;SDS011;17400;52.392;9.750;2023-02-28T03:53:14;7.20;;;5.23;;
30635;SDS011;17400;52.392;9.750;2023-02-28T03:55:47;8.47;;;6.00;;
30635;SDS011;17400;52.392;9.750;2023-02-28T03:58:19;10.33;;;7.63;;
30635;SDS011;17400;52.392;9.750;2023-02-28T04:00:53;10.77;;;7.30;;
30635;SDS011;17400;52.392;9.750;2023-02-28T04:03:24;15.10;;;8.00;;
30635;SDS011;17400;52.392;9.750;2023-02-28T04:05:55;12.07;;;7.23;;
30635;SDS011;17400;52.392;9.750;2023-02-28T04:08:25;9.10;;;6.33;;
30635;SDS011;17400;52.392;9.750;2023-02-28T04:10:54;12.90;;;7.03;;
30635;SDS011;17400;52.392;9.750;2023-02-28T04:13:28;12.30;;;6.43;;
30635;SDS011;17400;52.392;9.750;2023-02-28T04:15:55;12.80;;;7.27;;
30635;SDS011;17400;52.392;9.750;2023-02-28T04:18:23;11.27;;;6.10;;
30635;SDS011;17400;52.392;9.750;2023-02-28T04:20:51;12.20;;;6.43;;
30635;SDS011;17400;52.392;9.750;2023-02-28T04:23:19;8.83;;;5.80;;
30635;SDS011;17400;52.392;9.750;2023-02-28T04:25:49;10.90;;;6.57;;
30635;SDS011;17400;52.392;9.750;2023-02-28T04:28:17;10.47;;;6.10;;
30635;SDS011;17400;52.392;9.750;2023-02-28T04:30:45;10.47;;;5.40;;
30635;SDS011;17400;52.392;9.750;2023-02-28T04:33:13;13.67;;;6.80;;
30635;SDS011;17400;52.392;9.750;2023-02-28T04:35:41;11.40;;;7.00;;
30635;SDS011;17400;52.392;9.750;2023-02-28T04:38:08;12.10;;;6.30;;
30635;SDS011;17400;52.392;9.750;2023-02-28T04:40:36;9.97;;;6.03;;
30635;SDS011;17400;52.392;9.750;2023-02-28T04:43:05;9.43;;;5.07;;
30635;SDS011;17400;52.392;9.750;2023-02-28T04:45:34;11.10;;;5.70;;
30635;SDS011;17400;52.392;9.750;2023-02-28T04:48:02;10.27;;;5.53;;
30635;SDS011;17400;52.392;9.750;2023-02-28T04:50:30;9.47;;;5.10;;
30635;SDS011;17400;52.392;9.750;2023-02-28T04:52:58;9.93;;;5.17;;
30635;SDS011;17400;52.392;9.750;2023-02-28T04:55:26;11.50;;;5.87;;
30635;SDS011;17400;52.392;9.750;2023-02-28T04:57:54;13.00;;;6.43;;
30635;SDS011;17400;52.392;9.750;2023-02-28T05:00:23;9.57;;;5.60;;
30635;SDS011;17400;52.392;9.750;2023-02-28T05:02:51;15.20;;;6.17;;
30635;SDS011;17400;52.392;9.750;2023-02-28T05:05:19;9.73;;;6.17;;
30635;SDS011;17400;52.392;9.750;2023-02-28T05:07:48;10.50;;;5.87;;
30635;SDS011;17400;52.392;9.750;2023-02-28T05:10:16;15.37;;;6.13;;
30635;SDS011;17400;52.392;9.750;2023-02-28T05:12:44;11.90;;;6.47;;
30635;SDS011;17400;52.392;9.750;2023-02-28T05:15:12;8.77;;;6.30;;
30635;SDS011;17400;52.392;9.750;2023-02-28T05:17:42;11.67;;;6.53;;
30635;SDS011;17400;52.392;9.750;2023-02-28T05:20:12;8.77;;;5.57;;
30635;SDS011;17400;52.392;9.750;2023-02-28T05:22:41;12.13;;;7.03;;
30635;SDS011;17400;52.392;9.750;2023-02-28T05:25:13;14.67;;;5.60;;
30635;SDS011;17400;52.392;9.750;2023-02-28T05:27:44;9.83;;;5.93;;
30635;SDS011;17400;52.392;9.750;2023-02-28T05:30:12;9.27;;;6.00;;
30635;SDS011;17400;52.392;9.750;2023-02-28T05:32:41;9.30;;;5.83;;
30635;SDS011;17400;52.392;9.750;2023-02-28T05:35:10;11.47;;;6.83;;
30635;SDS011;17400;52.392;9.750;2023-02-28T05:37:38;8.30;;;6.10;;
30635;SDS011;17400;52.392;9.750;2023-02-28T05:40:08;11.03;;;6.77;;
30635;SDS011;17400;52.392;9.750;2023-02-28T05:42:37;8.93;;;6.23;;
30635;SDS011;17400;52.392;9.750;2023-02-28T05:45:06;12.50;;;6.43;;
30635;SDS011;17400;52.392;9.750;2023-02-28T05:47:36;13.43;;;6.97;;
30635;SDS011;17400;52.392;9.750;2023-02-28T05:50:06;10.90;;;6.67;;
30635;SDS011;17400;52.392;9.750;2023-02-28T05:52:36;9.63;;;6.37;;
30635;SDS011;17400;52.392;9.750;2023-02-28T05:55:06;10.13;;;5.43;;
30635;SDS011;17400;52.392;9.750;2023-02-28T05:57:35;7.63;;;4.73;;
30635;SDS011;17400;52.392;9.750;2023-02-28T06:00:03;10.00;;;5.80;;
30635;SDS011;17400;52.392;9.750;2023-02-28T06:02:32;10.17;;;5.50;;
30635;SDS011;17400;52.392;9.750;2023-02-28T06:05:00;7.53;;;5.33;;
30635;SDS011;17400;52.392;9.750;2023-02-28T06:07:29;7.83;;;5.23;;
30635;SDS011;17400;52.392;9.750;2023-02-28T06:09:57;9.83;;;5.40;;
30635;SDS011;17400;52.392;9.750;2023-02-28T06:12:25;12.67;;;6.83;;
30635;SDS011;17400;52.392;9.750;2023-02-28T06:14:52;11.10;;;5.43;;
30635;SDS011;17400;52.392;9.750;2023-02-28T06:17:20;8.70;;;5.07;;
30635;SDS011;17400;52.392;9.750;2023-02-28T06:19:48;9.53;;;5.23;;
30635;SDS011;17400;52.392;9.750;2023-02-28T06:22:17;8.20;;;5.20;;
30635;SDS011;17400;52.392;9.750;2023-02-28T06:24:46;8.20;;;5.57;;
30635;SDS011;17400;52.392;9.750;2023-02-28T06:27:15;9.33;;;6.00;;
30635;SDS011;17400;52.392;9.750;2023-02-28T06:29:43;9.37;;;5.73;;
30635;SDS011;17400;52.392;9.750;2023-02-28T06:32:14;13.03;;;6.80;;
30635;SDS011;17400;52.392;9.750;2023-02-28T06:34:42;10.37;;;5.80;;
30635;SDS011;17400;52.392;9.750;2023-02-28T06:37:10;14.37;;;6.63;;
30635;SDS011;17400;52.392;9.750;2023-02-28T06:39:38;9.67;;;6.13;;
30635;SDS011;17400;52.392;9.750;2023-02-28T06:42:08;14.03;;;6.30;;
30635;SDS011;17400;52.392;9.750;2023-02-28T06:44:36;10.67;;;6.27;;
30635;SDS011;17400;52.392;9.750;2023-02-28T06:47:06;11.13;;;5.33;;
30635;SDS011;17400;52.392;9.750;2023-02-28T06:49:34;9.43;;;5.90;;
30635;SDS011;17400;52.392;9.750;2023-02-28T06:52:05;15.37;;;8.27;;
30635;SDS011;17400;52.392;9.750;2023-02-28T06:54:40;11.30;;;6.83;;
30635;SDS011;17400;52.392;9.750;2023-02-28T06:57:09;10.40;;;6.23;;
30635;SDS011;17400;52.392;9.750;2023-02-28T06:59:39;11.43;;;6.33;;
30635;SDS011;17400;52.392;9.750;2023-02-28T07:02:09;12.63;;;7.90;;
30635;SDS011;17400;52.392;9.750;2023-02-28T07:04:37;13.73;;;7.43;;
30635;SDS011;17400;52.392;9.750;2023-02-28T07:07:06;11.17;;;5.73;;
30635;SDS011;17400;52.392;9.750;2023-02-28T07:09:34;17.87;;;7.33;;
30635;SDS011;17400;52.392;9.750;2023-02-28T07:12:05;9.37;;;5.37;;
30635;SDS011;17400;52.392;9.750;2023-02-28T07:14:35;10.17;;;6.73;;
30635;SDS011;17400;52.392;9.750;2023-02-28T07:17:03;13.33;;;8.30;;
30635;SDS011;17400;52.392;9.750;2023-02-28T07:19:31;15.43;;;7.60;;
30635;SDS011;17400;52.392;9.750;2023-02-28T07:21:59;13.67;;;8.00;;
30635;SDS011;17400;52.392;9.750;2023-02-28T07:24:29;11.47;;;8.10;;
30635;SDS011;17400;52.392;9.750;2023-02-28T07:26:58;10.40;;;7.33;;
30635;SDS011;17400;52.392;9.750;2023-02-28T07:29:27;10.63;;;6.17;;
30635;SDS011;17400;52.392;9.750;2023-02-28T07:31:56;14.23;;;7.33;;
30635;SDS011;17400;52.392;9.750;2023-02-28T07:34:26;12.43;;;6.63;;
30635;SDS011;17400;52.392;9.750;2023-02-28T07:36:54;12.43;;;6.20;;
30635;SDS011;17400;52.392;9.750;2023-02-28T07:39:23;8.73;;;6.23;;
30635;SDS011;17400;52.392;9.750;2023-02-28T07:41:50;11.43;;;6.17;;
30635;SDS011;17400;52.392;9.750;2023-02-28T07:44:18;11.27;;;6.43;;
30635;SDS011;17400;52.392;9.750;2023-02-28T07:46:48;9.20;;;5.57;;
30635;SDS011;17400;52.392;9.750;2023-02-28T07:49:17;9.33;;;5.80;;
30635;SDS011;17400;52.392;9.750;2023-02-28T07:51:47;10.13;;;6.23;;
30635;SDS011;17400;52.392;9.750;2023-02-28T07:54:17;10.33;;;6.57;;
30635;SDS011;17400;52.392;9.750;2023-02-28T07:56:45;9.27;;;5.77;;
30635;SDS011;17400;52.392;9.750;2023-02-28T07:59:13;9.53;;;6.00;;
30635;SDS011;17400;52.392;9.750;2023-02-28T08:01:41;10.10;;;6.63;;
30635;SDS011;17400;52.392;9.750;2023-02-28T08:04:11;10.67;;;6.97;;
30635;SDS011;17400;52.392;9.750;2023-02-28T08:06:40;9.97;;;6.70;;
30635;SDS011;17400;52.392;9.750;2023-02-28T08:09:08;12.03;;;6.80;;
30635;SDS011;17400;52.392;9.750;2023-02-28T08:11:36;12.07;;;7.37;;
30635;SDS011;17400;52.392;9.750;2023-02-28T08:14:03;10.53;;;6.50;;
30635;SDS011;17400;52.392;9.750;2023-02-28T08:16:32;10.67;;;6.70;;
30635;SDS011;17400;52.392;9.750;2023-02-28T08:19:02;10.67;;;7.47;;
30635;SDS011;17400;52.392;9.750;2023-02-28T08:21:30;12.67;;;7.10;;
30635;SDS011;17400;52.392;9.750;2023-02-28T08:24:00;13.80;;;6.50;;
30635;SDS011;17400;52.392;9.750;2023-02-28T08:26:28;8.20;;;5.13;;
30635;SDS011;17400;52.392;9.750;2023-02-28T08:28:56;8.00;;;5.63;;
30635;SDS011;17400;52.392;9.750;2023-02-28T08:31:26;7.40;;;4.67;;
30635;SDS011;17400;52.392;9.750;2023-02-28T08:33:55;8.67;;;5.43;;
30635;SDS011;17400;52.392;9.750;2023-02-28T08:36:25;13.57;;;5.20;;
30635;SDS011;17400;52.392;9.750;2023-02-28T08:38:55;8.50;;;5.53;;
30635;SDS011;17400;52.392;9.750;2023-02-28T08:41:25;10.43;;;5.27;;
30635;SDS011;17400;52.392;9.750;2023-02-28T08:43:55;7.13;;;4.83;;
30635;SDS011;17400;52.392;9.750;2023-02-28T08:46:23;10.60;;;5.43;;
30635;SDS011;17400;52.392;9.750;2023-02-28T08:48:51;9.90;;;5.30;;
30635;SDS011;17400;52.392;9.750;2023-02-28T08:51:20;11.80;;;5.40;;
30635;SDS011;17400;52.392;9.750;2023-02-28T08:53:53;7.93;;;3.90;;
30635;SDS011;17400;52.392;9.750;2023-02-28T08:56:23;5.93;;;3.63;;
30635;SDS011;17400;52.392;9.750;2023-02-28T08:58:55;11.63;;;3.73;;
30635;SDS011;17400;52.392;9.750;2023-02-28T09:01:25;6.07;;;3.73;;
30635;SDS011;17400;52.392;9.750;2023-02-28T09:03:55;8.07;;;4.03;;
30635;SDS011;17400;52.392;9.750;2023-02-28T09:06:24;9.80;;;3.60;;
30635;SDS011;17400;52.392;9.750;2023-02-28T09:08:56;10.67;;;3.53;;
30635;SDS011;17400;52.392;9.750;2023-02-28T09:11:25;6.07;;;2.10;;
30635;SDS011;17400;52.392;9.750;2023-02-28T09:13:54;7.13;;;3.73;;
30635;SDS011;17400;52.392;9.750;2023-02-28T09:16:22;6.40;;;3.13;;
30635;SDS011;17400;52.392;9.750;2023-02-28T09:18:50;5.50;;;3.27;;
30635;SDS011;17400;52.392;9.750;2023-02-28T09:21:18;4.17;;;2.80;;
30635;SDS011;17400;52.392;9.750;2023-02-28T09:23:47;6.07;;;2.73;;
30635;SDS011;17400;52.392;9.750;2023-02-28T09:26:16;4.17;;;3.13;;
30635;SDS011;17400;52.392;9.750;2023-02-28T09:28:45;5.63;;;2.27;;
30635;SDS011;17400;52.392;9.750;2023-02-28T09:31:19;6.33;;;3.50;;
30635;SDS011;17400;52.392;9.750;2023-02-28T09:33:48;4.13;;;2.23;;
30635;SDS011;17400;52.392;9.750;2023-02-28T09:36:18;3.63;;;2.23;;
30635;SDS011;17400;52.392;9.750;2023-02-28T09:38:48;4.07;;;2.00;;
30635;SDS011;17400;52.392;9.750;2023-02-28T09:41:19;4.23;;;1.70;;
30635;SDS011;17400;52.392;9.750;2023-02-28T09:43:49;4.63;;;1.73;;
30635;SDS011;17400;52.392;9.750;2023-02-28T09:46:27;5.70;;;2.13;;
30635;SDS011;17400;52.392;9.750;2023-02-28T09:48:59;5.43;;;2.80;;
30635;SDS011;17400;52.392;9.750;2023-02-28T09:54:18;3.20;;;2.13;;
30635;SDS011;17400;52.392;9.750;2023-02-28T09:56:49;4.33;;;2.23;;
30635;SDS011;17400;52.392;9.750;2023-02-28T09:59:26;5.27;;;2.60;;
30635;SDS011;17400;52.392;9.750;2023-02-28T10:02:08;3.27;;;2.07;;
30635;SDS011;17400;52.392;9.750;2023-02-28T10:04:46;5.13;;;3.07;;
30635;SDS011;17400;52.392;9.750;2023-02-28T10:07:23;8.90;;;3.70;;
30635;SDS011;17400;52.392;9.750;2023-02-28T10:10:07;2.87;;;2.03;;
30635;SDS011;17400;52.392;9.750;2023-02-28T10:12:47;6.63;;;2.27;;
30635;SDS011;17400;52.392;9.750;2023-02-28T10:15:21;5.67;;;2.50;;
30635;SDS011;17400;52.392;9.750;2023-02-28T10:17:56;2.27;;;1.53;;
30635;SDS011;17400;52.392;9.750;2023-02-28T10:20:35;4.43;;;2.47;;
30635;SDS011;17400;52.392;9.750;2023-02-28T10:23:07;4.20;;;2.77;;
30635;SDS011;17400;52.392;9.750;2023-02-28T10:25:40;4.10;;;2.47;;
30635;SDS011;17400;52.392;9.750;2023-02-28T10:28:15;7.13;;;1.80;;
30635;SDS011;17400;52.392;9.750;2023-02-28T10:30:45;5.57;;;2.27;;
30635;SDS011;17400;52.392;9.750;2023-02-28T10:33:21;2.40;;;1.67;;
30635;SDS011;17400;52.392;9.750;2023-02-28T10:35:50;3.60;;;1.90;;
30635;SDS011;17400;52.392;9.750;2023-02-28T10:38:20;4.57;;;1.67;;
30635;SDS011;17400;52.392;9.750;2023-02-28T10:40:49;4.50;;;1.70;;
30635;SDS011;17400;52.392;9.750;2023-02-28T10:43:19;4.30;;;2.40;;
30635;SDS011;17400;52.392;9.750;2023-02-28T10:45:58;6.67;;;2.10;;
30635;SDS011;17400;52.392;9.750;2023-02-28T10:48:32;2.77;;;1.40;;
30635;SDS011;17400;52.392;9.750;2023-02-28T10:51:01;3.70;;;1.70;;
30635;SDS011;17400;52.392;9.750;2023-02-28T10:53:31;3.00;;;1.50;;
30635;SDS011;17400;52.392;9.750;2023-02-28T10:56:25;2.13;;;1.47;;
30635;SDS011;17400;52.392;9.750;2023-02-28T10:58:54;3.07;;;2.20;;
30635;SDS011;17400;52.392;9.750;2023-02-28T11:01:34;5.23;;;1.80;;
30635;SDS011;17400;52.392;9.750;2023-02-28T11:04:16;2.93;;;1.70;;
30635;SDS011;17400;52.392;9.750;2023-02-28T11:06:45;3.30;;;1.87;;
30635;SDS011;17400;52.392;9.750;2023-02-28T11:09:17;3.37;;;1.70;;
30635;SDS011;17400;52.392;9.750;2023-02-28T11:11:50;5.10;;;1.77;;
30635;SDS011;17400;52.392;9.750;2023-02-28T11:14:19;3.67;;;1.27;;
30635;SDS011;17400;52.392;9.750;2023-02-28T11:16:49;1.53;;;1.30;;
30635;SDS011;17400;52.392;9.750;2023-02-28T11:19:20;1.37;;;1.20;;
30635;SDS011;17400;52.392;9.750;2023-02-28T11:21:54;0.90;;;0.90;;
30635;SDS011;17400;52.392;9.750;2023-02-28T11:24:24;1.40;;;0.70;;
30635;SDS011;17400;52.392;9.750;2023-02-28T11:26:54;0.70;;;0.70;;
30635;SDS011;17400;52.392;9.750;2023-02-28T11:29:24;2.07;;;1.03;;
30635;SDS011;17400;52.392;9.750;2023-02-28T11:32:01;3.50;;;1.20;;
30635;SDS011;17400;52.392;9.750;2023-02-28T11:34:32;3.63;;;1.10;;
30635;SDS011;17400;52.392;9.750;2023-02-28T11:37:01;2.40;;;1.20;;
30635;SDS011;17400;52.392;9.750;2023-02-28T11:39:31;3.23;;;1.00;;
30635;SDS011;17400;52.392;9.750;2023-02-28T11:45:03;4.30;;;1.37;;
30635;SDS011;17400;52.392;9.750;2023-02-28T11:47:42;1.33;;;1.10;;
30635;SDS011;17400;52.392;9.750;2023-02-28T11:50:19;3.57;;;1.20;;
30635;SDS011;17400;52.392;9.750;2023-02-28T11:52:56;6.27;;;1.33;;
30635;SDS011;17400;52.392;9.750;2023-02-28T11:55:27;3.00;;;2.30;;
30635;SDS011;17400;52.392;9.750;2023-02-28T12:01:08;3.87;;;1.67;;
30635;SDS011;17400;52.392;9.750;2023-02-28T12:03:43;3.30;;;2.47;;
30635;SDS011;17400;52.392;9.750;2023-02-28T12:06:20;3.17;;;2.00;;
30635;SDS011;17400;52.392;9.750;2023-02-28T12:08:53;4.17;;;1.60;;
30635;SDS011;17400;52.392;9.750;2023-02-28T12:11:32;3.87;;;1.53;;
30635;SDS011;17400;52.392;9.750;2023-02-28T12:14:20;2.20;;;1.43;;
30635;SDS011;17400;52.392;9.750;2023-02-28T12:17:02;1.93;;;1.23;;
30635;SDS011;17400;52.392;9.750;2023-02-28T12:19:41;6.80;;;2.60;;
30635;SDS011;17400;52.392;9.750;2023-02-28T12:22:22;4.37;;;1.97;;
30635;SDS011;17400;52.392;9.750;2023-02-28T12:25:02;3.33;;;2.40;;
30635;SDS011;17400;52.392;9.750;2023-02-28T12:27:49;5.07;;;1.70;;
30635;SDS011;17400;52.392;9.750;2023-02-28T12:30:20;2.57;;;1.30;;
30635;SDS011;17400;52.392;9.750;2023-02-28T12:32:52;3.70;;;1.67;;
30635;SDS011;17400;52.392;9.750;2023-02-28T12:35:25;4.87;;;2.00;;
30635;SDS011;17400;52.392;9.750;2023-02-28T12:38:01;3.00;;;1.37;;
30635;SDS011;17400;52.392;9.750;2023-02-28T12:40:34;2.90;;;1.93;;
30635;SDS011;17400;52.392;9.750;2023-02-28T12:43:10;2.47;;;1.60;;
30635;SDS011;17400;52.392;9.750;2023-02-28T12:45:41;2.40;;;1.50;;
30635;SDS011;17400;52.392;9.750;2023-02-28T12:48:16;3.43;;;1.53;;
30635;SDS011;17400;52.392;9.750;2023-02-28T12:50:48;3.27;;;1.70;;
30635;SDS011;17400;52.392;9.750;2023-02-28T12:53:21;5.63;;;1.60;;
30635;SDS011;17400;52.392;9.750;2023-02-28T12:55:55;4.07;;;1.90;;
30635;SDS011;17400;52.392;9.750;2023-02-28T12:58:36;4.30;;;1.43;;
30635;SDS011;17400;52.392;9.750;2023-02-28T13:01:15;3.17;;;2.00;;
30635;SDS011;17400;52.392;9.750;2023-02-28T13:04:08;4.50;;;2.17;;
30635;SDS011;17400;52.392;9.750;2023-02-28T13:06:59;5.27;;;2.10;;
30635;SDS011;17400;52.392;9.750;2023-02-28T13:09:41;5.97;;;3.30;;
30635;SDS011;17400;52.392;9.750;2023-02-28T13:12:19;5.20;;;3.17;;
30635;SDS011;17400;52.392;9.750;2023-02-28T13:14:49;6.73;;;2.90;;
30635;SDS011;17400;52.392;9.750;2023-02-28T13:17:18;3.60;;;1.87;;
30635;SDS011;17400;52.392;9.750;2023-02-28T13:19:55;4.33;;;2.53;;
30635;SDS011;17400;52.392;9.750;2023-02-28T13:22:36;4.90;;;2.07;;
30635;SDS011;17400;52.392;9.750;2023-02-28T13:31:26;5.00;;;2.50;;
30635;SDS011;17400;52.392;9.750;2023-02-28T13:34:05;2.90;;;1.87;;
30635;SDS011;17400;52.392;9.750;2023-02-28T13:36:42;4.80;;;2.60;;
30635;SDS011;17400;52.392;9.750;2023-02-28T13:42:23;3.10;;;1.50;;
30635;SDS011;17400;52.392;9.750;2023-02-28T13:45:24;4.67;;;2.10;;
30635;SDS011;17400;52.392;9.750;2023-02-28T13:47:53;6.80;;;2.40;;
30635;SDS011;17400;52.392;9.750;2023-02-28T13:50:26;5.57;;;2.50;;
30635;SDS011;17400;52.392;9.750;2023-02-28T13:53:21;5.32;;;2.42;;
30635;SDS011;17400;52.392;9.750;2023-02-28T13:55:59;3.92;;;2.05;;
30635;SDS011;17400;52.392;9.750;2023-02-28T13:58:37;4.33;;;2.67;;
30635;SDS011;17400;52.392;9.750;2023-02-28T14:01:15;4.67;;;2.67;;
30635;SDS011;17400;52.392;9.750;2023-02-28T14:07:06;5.50;;;2.00;;
30635;SDS011;17400;52.392;9.750;2023-02-28T14:09:36;3.47;;;2.35;;
30635;SDS011;17400;52.392;9.750;2023-02-28T14:17:56;5.20;;;3.50;;
30635;SDS011;17400;52.392;9.750;2023-02-28T14:20:26;7.30;;;2.67;;
30635;SDS011;17400;52.392;9.750;2023-02-28T14:22:58;4.27;;;2.53;;
30635;SDS011;17400;52.392;9.750;2023-02-28T14:25:35;6.03;;;2.10;;
30635;SDS011;17400;52.392;9.750;2023-02-28T14:28:11;3.47;;;2.53;;
30635;SDS011;17400;52.392;9.750;2023-02-28T14:30:52;5.37;;;2.60;;
30635;SDS011;17400;52.392;9.750;2023-02-28T14:33:27;4.07;;;2.67;;
30635;SDS011;17400;52.392;9.750;2023-02-28T14:36:11;4.50;;;2.27;;
30635;SDS011;17400;52.392;9.750;2023-02-28T14:38:45;3.10;;;1.80;;
30635;SDS011;17400;52.392;9.750;2023-02-28T14:41:16;5.83;;;1.73;;
30635;SDS011;17400;52.392;9.750;2023-02-28T14:43:48;4.80;;;1.87;;
30635;SDS011;17400;52.392;9.750;2023-02-28T14:46:18;4.60;;;2.30;;
30635;SDS011;17400;52.392;9.750;2023-02-28T14:48:49;2.97;;;2.03;;
30635;SDS011;17400;52.392;9.750;2023-02-28T14:51:18;5.67;;;2.87;;
30635;SDS011;17400;52.392;9.750;2023-02-28T14:53:48;6.93;;;2.80;;
30635;SDS011;17400;52.392;9.750;2023-02-28T14:56:21;4.77;;;3.20;;
30635;SDS011;17400;52.392;9.750;2023-02-28T14:58:51;3.97;;;2.07;;
30635;SDS011;17400;52.392;9.750;2023-02-28T15:01:21;4.83;;;2.30;;
30635;SDS011;17400;52.392;9.750;2023-02-28T15:03:58;3.97;;;2.63;;
30635;SDS011;17400;52.392;9.750;2023-02-28T15:06:27;4.17;;;2.20;;
30635;SDS011;17400;52.392;9.750;2023-02-28T15:09:09;2.67;;;1.70;;
30635;SDS011;17400;52.392;9.750;2023-02-28T15:11:38;6.23;;;2.53;;
30635;SDS011;17400;52.392;9.750;2023-02-28T15:14:07;8.03;;;2.50;;
30635;SDS011;17400;52.392;9.750;2023-02-28T15:16:42;4.97;;;2.50;;
30635;SDS011;17400;52.392;9.750;2023-02-28T15:19:16;3.73;;;2.43;;
30635;SDS011;17400;52.392;9.750;2023-02-28T15:21:50;4.07;;;1.87;;
30635;SDS011;17400;52.392;9.750;2023-02-28T15:24:21;8.37;;;2.63;;
30635;SDS011;17400;52.392;9.750;2023-02-28T15:26:57;3.93;;;2.40;;
30635;SDS011;17400;52.392;9.750;2023-02-28T15:29:27;5.13;;;2.10;;
30635;SDS011;17400;52.392;9.750;2023-02-28T15:31:59;5.63;;;2.10;;
30635;SDS011;17400;52.392;9.750;2023-02-28T15:34:33;6.40;;;2.57;;
30635;SDS011;17400;52.392;9.750;2023-02-28T15:39:56;4.53;;;2.60;;
30635;SDS011;17400;52.392;9.750;2023-02-28T15:42:27;5.87;;;2.40;;
30635;SDS011;17400;52.392;9.750;2023-02-28T15:44:58;3.83;;;2.37;;
30635;SDS011;17400;52.392;9.750;2023-02-28T15:47:27;7.10;;;2.60;;
30635;SDS011;17400;52.392;9.750;2023-02-28T15:49:59;5.50;;;2.93;;